Weather at Taylor Airstrip

Public forecast

Using degrees Fahrenheit for public forecast. Weather courtesy of forecast.io.

Closest aviation weather report (METAR) to Taylor Airstrip

Closest report is Searcy Municipal Airport, 16.3 nm (30.2 km) NW. Retrieved 2020/09/18 05:56 UTC (1 hour ago):

KSRC 180556Z AUTO 36004KT 10SM CLR 21/18 A3006 RMK AO2 SLP174 T02060178 10233 20206 402890206 51009

Closest aviation forecast (TAF) to Taylor Airstrip

Closest forecast is Little Rock Air Force Base, 29.8 nm (55.2 km) W. Retrieved 2020/09/18 07:06 UTC (0 seconds ago):

TAF TAF KLRF 180700Z 1807/1913 01006KT 9999 SCT040 SCT120 WS020/02035KT QNH3003INS BECMG 1813/1814 02010G15KT 9999 FEW060 SCT180 QNH3004INS BECMG 1819/1820 03012G20KT 9999 FEW060 FEW180 QNH3009INS BECMG 1822/1823 03012KT 9999 FEW060 FEW200 QNH3009INS BECMG 1903/1904 04006KT 9999 FEW200 QNH3010INS TX27/1820Z TN19/1812Z